sensor_id;sensor_type;location;lat;lon;timestamp;pressure;altitude;pressure_sealevel;temperature;humidity
48364;BME280;34170;54.364;18.582;2023-04-02T00:01:39;99781.56;;;3.59;100.00
48364;BME280;34170;54.364;18.582;2023-04-02T00:04:15;99801.16;;;3.58;100.00
48364;BME280;34170;54.364;18.582;2023-04-02T00:06:56;99797.97;;;3.53;100.00
48364;BME280;34170;54.364;18.582;2023-04-02T00:09:42;99808.09;;;3.48;98.74
48364;BME280;34170;54.364;18.582;2023-04-02T00:12:13;99806.91;;;3.52;97.13
48364;BME280;34170;54.364;18.582;2023-04-02T00:14:50;99863.03;;;3.60;95.68
48364;BME280;34170;54.364;18.582;2023-04-02T00:17:20;99815.25;;;3.48;95.69
48364;BME280;34170;54.364;18.582;2023-04-02T00:20:03;99817.84;;;3.60;93.55
48364;BME280;34170;54.364;18.582;2023-04-02T00:22:33;99820.72;;;3.57;92.85
48364;BME280;34170;54.364;18.582;2023-04-02T00:25:09;99822.47;;;3.46;92.60
48364;BME280;34170;54.364;18.582;2023-04-02T00:27:38;99826.28;;;3.54;91.35
48364;BME280;34170;54.364;18.582;2023-04-02T00:30:06;99837.28;;;3.61;90.09
48364;BME280;34170;54.364;18.582;2023-04-02T00:32:36;99845.31;;;3.48;91.01
48364;BME280;34170;54.364;18.582;2023-04-02T00:35:10;99835.72;;;3.09;97.72
48364;BME280;34170;54.364;18.582;2023-04-02T00:37:39;99837.84;;;3.16;96.08
48364;BME280;34170;54.364;18.582;2023-04-02T00:40:16;99833.69;;;3.25;95.82
48364;BME280;34170;54.364;18.582;2023-04-02T00:42:47;99851.41;;;3.37;92.58
48364;BME280;34170;54.364;18.582;2023-04-02T00:45:22;99836.13;;;3.65;93.03
48364;BME280;34170;54.364;18.582;2023-04-02T00:47:51;99844.38;;;3.49;92.40
48364;BME280;34170;54.364;18.582;2023-04-02T00:50:29;99840.75;;;3.50;91.33
48364;BME280;34170;54.364;18.582;2023-04-02T00:52:59;99845.16;;;3.62;89.63
48364;BME280;34170;54.364;18.582;2023-04-02T00:55:34;99861.47;;;3.45;90.01
48364;BME280;34170;54.364;18.582;2023-04-02T00:58:11;99875.44;;;3.36;90.17
48364;BME280;34170;54.364;18.582;2023-04-02T01:00:48;99880.97;;;3.46;89.78
48364;BME280;34170;54.364;18.582;2023-04-02T01:05:46;99857.81;;;3.35;88.09
48364;BME280;34170;54.364;18.582;2023-04-02T01:11:25;99854.75;;;3.52;86.99
48364;BME280;34170;54.364;18.582;2023-04-02T01:25:02;99886.03;;;3.61;86.47
48364;BME280;34170;54.364;18.582;2023-04-02T01:27:56;99881.00;;;3.70;87.41
48364;BME280;34170;54.364;18.582;2023-04-02T01:30:33;99886.00;;;3.74;87.79
48364;BME280;34170;54.364;18.582;2023-04-02T01:33:03;99872.81;;;3.73;87.27
48364;BME280;34170;54.364;18.582;2023-04-02T01:35:36;99880.66;;;3.74;87.53
48364;BME280;34170;54.364;18.582;2023-04-02T01:38:15;99868.69;;;3.56;88.69
48364;BME280;34170;54.364;18.582;2023-04-02T01:40:49;99892.31;;;3.60;87.92
48364;BME280;34170;54.364;18.582;2023-04-02T01:43:37;99890.97;;;3.79;87.73
48364;BME280;34170;54.364;18.582;2023-04-02T01:46:29;99898.50;;;3.85;86.65
48364;BME280;34170;54.364;18.582;2023-04-02T01:49:08;99901.84;;;3.76;85.69
48364;BME280;34170;54.364;18.582;2023-04-02T01:51:41;99914.41;;;3.74;85.43
48364;BME280;34170;54.364;18.582;2023-04-02T01:54:09;99908.59;;;3.43;87.32
48364;BME280;34170;54.364;18.582;2023-04-02T01:56:40;99901.22;;;3.72;87.41
48364;BME280;34170;54.364;18.582;2023-04-02T01:59:09;99914.97;;;3.53;88.38
48364;BME280;34170;54.364;18.582;2023-04-02T02:02:00;99919.41;;;3.66;88.43
48364;BME280;34170;54.364;18.582;2023-04-02T02:04:29;99915.56;;;3.70;87.02
48364;BME280;34170;54.364;18.582;2023-04-02T02:06:58;99919.84;;;3.59;88.13
48364;BME280;34170;54.364;18.582;2023-04-02T02:09:33;99918.97;;;3.72;88.80
48364;BME280;34170;54.364;18.582;2023-04-02T02:12:04;99929.22;;;3.52;88.54
48364;BME280;34170;54.364;18.582;2023-04-02T02:14:32;99923.41;;;3.47;89.50
48364;BME280;34170;54.364;18.582;2023-04-02T02:17:01;99925.66;;;3.77;88.99
48364;BME280;34170;54.364;18.582;2023-04-02T02:19:37;99945.81;;;3.69;89.06
48364;BME280;34170;54.364;18.582;2023-04-02T02:22:21;99944.81;;;3.70;87.49
48364;BME280;34170;54.364;18.582;2023-04-02T02:24:50;99951.03;;;3.94;86.39
48364;BME280;34170;54.364;18.582;2023-04-02T02:30:08;99947.28;;;3.97;84.42
48364;BME280;34170;54.364;18.582;2023-04-02T02:32:47;99943.28;;;3.91;84.79
48364;BME280;34170;54.364;18.582;2023-04-02T02:35:48;99948.53;;;4.04;84.72
48364;BME280;34170;54.364;18.582;2023-04-02T02:41:25;99949.97;;;3.97;85.62
48364;BME280;34170;54.364;18.582;2023-04-02T02:44:15;99960.03;;;3.68;86.80
48364;BME280;34170;54.364;18.582;2023-04-02T02:46:48;99948.56;;;3.67;87.01
48364;BME280;34170;54.364;18.582;2023-04-02T02:49:27;99954.47;;;3.84;88.26
48364;BME280;34170;54.364;18.582;2023-04-02T02:52:02;99983.31;;;3.77;87.91
48364;BME280;34170;54.364;18.582;2023-04-02T02:54:43;99954.31;;;3.74;88.81
48364;BME280;34170;54.364;18.582;2023-04-02T02:57:21;99963.53;;;3.81;89.27
48364;BME280;34170;54.364;18.582;2023-04-02T02:59:50;99962.16;;;3.75;89.33
48364;BME280;34170;54.364;18.582;2023-04-02T03:02:20;99975.16;;;3.67;89.40
48364;BME280;34170;54.364;18.582;2023-04-02T03:04:50;99973.41;;;3.79;88.52
48364;BME280;34170;54.364;18.582;2023-04-02T03:07:26;99984.50;;;3.73;89.18
48364;BME280;34170;54.364;18.582;2023-04-02T03:10:13;99977.56;;;3.83;88.83
48364;BME280;34170;54.364;18.582;2023-04-02T03:13:17;99976.84;;;3.81;88.96
48364;BME280;34170;54.364;18.582;2023-04-02T03:27:20;99998.38;;;4.02;87.60
48364;BME280;34170;54.364;18.582;2023-04-02T03:32:50;100008.75;;;3.81;88.53
48364;BME280;34170;54.364;18.582;2023-04-02T03:35:35;100010.66;;;3.79;89.05
48364;BME280;34170;54.364;18.582;2023-04-02T03:38:23;100038.84;;;3.94;88.09
48364;BME280;34170;54.364;18.582;2023-04-02T03:41:12;100034.72;;;3.65;90.41
48364;BME280;34170;54.364;18.582;2023-04-02T03:43:46;100025.75;;;3.91;89.88
48364;BME280;34170;54.364;18.582;2023-04-02T03:48:48;100028.44;;;3.66;90.54
48364;BME280;34170;54.364;18.582;2023-04-02T03:51:31;100039.41;;;3.74;90.14
48364;BME280;34170;54.364;18.582;2023-04-02T03:54:02;100046.53;;;3.73;90.49
48364;BME280;34170;54.364;18.582;2023-04-02T03:56:30;100048.44;;;3.71;91.23
48364;BME280;34170;54.364;18.582;2023-04-02T04:02:18;100061.53;;;3.74;89.26
48364;BME280;34170;54.364;18.582;2023-04-02T04:04:52;100063.66;;;3.69;89.99
48364;BME280;34170;54.364;18.582;2023-04-02T04:07:30;100059.16;;;3.82;89.77
48364;BME280;34170;54.364;18.582;2023-04-02T04:10:00;100063.13;;;3.77;89.51
48364;BME280;34170;54.364;18.582;2023-04-02T04:12:40;100071.09;;;3.51;90.29
48364;BME280;34170;54.364;18.582;2023-04-02T04:20:48;100102.72;;;3.69;91.53
48364;BME280;34170;54.364;18.582;2023-04-02T04:23:31;100101.09;;;3.79;91.13
48364;BME280;34170;54.364;18.582;2023-04-02T04:28:42;100121.09;;;3.72;89.74
48364;BME280;34170;54.364;18.582;2023-04-02T04:31:16;100101.72;;;3.82;89.67
48364;BME280;34170;54.364;18.582;2023-04-02T04:33:53;100111.88;;;3.90;89.48
48364;BME280;34170;54.364;18.582;2023-04-02T04:36:40;100115.88;;;3.57;89.64
48364;BME280;34170;54.364;18.582;2023-04-02T04:39:18;100121.53;;;3.78;90.41
48364;BME280;34170;54.364;18.582;2023-04-02T04:41:50;100113.03;;;3.99;89.44
48364;BME280;34170;54.364;18.582;2023-04-02T04:44:24;100119.59;;;3.93;88.46
48364;BME280;34170;54.364;18.582;2023-04-02T04:47:10;100124.09;;;3.93;89.09
48364;BME280;34170;54.364;18.582;2023-04-02T04:49:43;100138.22;;;3.93;89.62
48364;BME280;34170;54.364;18.582;2023-04-02T04:52:25;100138.66;;;3.87;88.78
48364;BME280;34170;54.364;18.582;2023-04-02T04:54:56;100131.13;;;3.81;88.85
48364;BME280;34170;54.364;18.582;2023-04-02T04:57:37;100136.72;;;4.15;87.75
48364;BME280;34170;54.364;18.582;2023-04-02T05:00:17;100161.97;;;3.71;89.60
48364;BME280;34170;54.364;18.582;2023-04-02T05:02:51;100150.16;;;3.75;90.08
48364;BME280;34170;54.364;18.582;2023-04-02T05:05:26;100154.53;;;3.76;90.26
48364;BME280;34170;54.364;18.582;2023-04-02T05:08:10;100140.88;;;3.68;91.46
48364;BME280;34170;54.364;18.582;2023-04-02T05:11:01;100153.88;;;3.85;91.12
48364;BME280;34170;54.364;18.582;2023-04-02T05:13:39;100176.03;;;3.98;90.52
48364;BME280;34170;54.364;18.582;2023-04-02T05:19:14;100206.53;;;3.67;92.38
48364;BME280;34170;54.364;18.582;2023-04-02T05:21:47;100188.69;;;3.82;92.25
48364;BME280;34170;54.364;18.582;2023-04-02T05:24:39;100188.09;;;3.51;93.39
48364;BME280;34170;54.364;18.582;2023-04-02T05:33:05;100203.25;;;3.76;94.00
48364;BME280;34170;54.364;18.582;2023-04-02T05:35:44;100201.16;;;3.94;93.12
48364;BME280;34170;54.364;18.582;2023-04-02T05:38:19;100202.81;;;3.70;94.34
48364;BME280;34170;54.364;18.582;2023-04-02T05:40:58;100216.34;;;3.79;93.35
48364;BME280;34170;54.364;18.582;2023-04-02T05:43:29;100212.13;;;4.03;93.13
48364;BME280;34170;54.364;18.582;2023-04-02T05:46:03;100220.84;;;4.05;92.47
48364;BME280;34170;54.364;18.582;2023-04-02T05:48:37;100221.34;;;3.84;93.78
48364;BME280;34170;54.364;18.582;2023-04-02T05:51:10;100232.53;;;3.89;92.83
48364;BME280;34170;54.364;18.582;2023-04-02T05:53:48;100221.97;;;3.75;93.71
48364;BME280;34170;54.364;18.582;2023-04-02T05:56:44;100234.16;;;3.92;94.48
48364;BME280;34170;54.364;18.582;2023-04-02T06:04:49;100256.91;;;3.83;92.60
48364;BME280;34170;54.364;18.582;2023-04-02T06:07:23;100232.81;;;3.72;93.70
48364;BME280;34170;54.364;18.582;2023-04-02T06:15:21;100263.03;;;3.71;93.46
48364;BME280;34170;54.364;18.582;2023-04-02T06:18:06;100276.50;;;4.08;93.19
48364;BME280;34170;54.364;18.582;2023-04-02T06:20:35;100283.34;;;3.72;94.37
48364;BME280;34170;54.364;18.582;2023-04-02T06:23:11;100267.13;;;3.89;93.13
48364;BME280;34170;54.364;18.582;2023-04-02T06:28:16;100278.31;;;3.94;93.14
48364;BME280;34170;54.364;18.582;2023-04-02T06:30:52;100282.56;;;3.97;92.91
48364;BME280;34170;54.364;18.582;2023-04-02T06:33:21;100294.28;;;3.94;92.15
48364;BME280;34170;54.364;18.582;2023-04-02T06:35:50;100279.31;;;4.06;92.08
48364;BME280;34170;54.364;18.582;2023-04-02T06:38:29;100294.06;;;3.97;91.91
48364;BME280;34170;54.364;18.582;2023-04-02T06:41:10;100293.34;;;4.08;91.76
48364;BME280;34170;54.364;18.582;2023-04-02T06:44:18;100328.91;;;4.07;90.54
48364;BME280;34170;54.364;18.582;2023-04-02T06:47:05;100330.34;;;3.98;91.57
48364;BME280;34170;54.364;18.582;2023-04-02T06:49:41;100315.44;;;3.83;91.37
48364;BME280;34170;54.364;18.582;2023-04-02T06:52:45;100313.66;;;3.96;91.85
48364;BME280;34170;54.364;18.582;2023-04-02T06:58:10;100345.03;;;3.91;89.60
48364;BME280;34170;54.364;18.582;2023-04-02T07:00:41;100329.25;;;4.15;88.42
48364;BME280;34170;54.364;18.582;2023-04-02T07:03:28;100353.06;;;4.57;86.39
48364;BME280;34170;54.364;18.582;2023-04-02T07:06:02;100353.84;;;4.19;86.55
48364;BME280;34170;54.364;18.582;2023-04-02T07:08:31;100348.75;;;4.42;85.95
48364;BME280;34170;54.364;18.582;2023-04-02T07:10:59;100363.72;;;4.70;85.55
48364;BME280;34170;54.364;18.582;2023-04-02T07:13:27;100357.50;;;5.08;82.54
48364;BME280;34170;54.364;18.582;2023-04-02T07:15:55;100391.22;;;4.96;81.37
48364;BME280;34170;54.364;18.582;2023-04-02T07:18:28;100383.00;;;4.73;84.33
48364;BME280;34170;54.364;18.582;2023-04-02T07:20:58;100367.56;;;4.78;84.27
48364;BME280;34170;54.364;18.582;2023-04-02T07:23:26;100374.38;;;4.83;85.70
48364;BME280;34170;54.364;18.582;2023-04-02T07:25:54;100369.75;;;5.36;83.22
48364;BME280;34170;54.364;18.582;2023-04-02T07:28:23;100385.25;;;5.05;82.36
48364;BME280;34170;54.364;18.582;2023-04-02T07:30:53;100375.16;;;4.85;84.40
48364;BME280;34170;54.364;18.582;2023-04-02T07:33:26;100394.31;;;4.77;83.67
48364;BME280;34170;54.364;18.582;2023-04-02T07:35:55;100397.94;;;4.89;84.65
48364;BME280;34170;54.364;18.582;2023-04-02T07:38:23;100394.84;;;4.95;83.32
48364;BME280;34170;54.364;18.582;2023-04-02T07:40:51;100402.31;;;5.28;81.39
48364;BME280;34170;54.364;18.582;2023-04-02T07:43:19;100419.47;;;4.99;82.68
48364;BME280;34170;54.364;18.582;2023-04-02T07:45:49;100410.13;;;4.40;85.12
48364;BME280;34170;54.364;18.582;2023-04-02T07:48:16;100433.50;;;4.62;84.97
48364;BME280;34170;54.364;18.582;2023-04-02T07:50:44;100426.63;;;4.45;85.93
48364;BME280;34170;54.364;18.582;2023-04-02T07:53:26;100428.44;;;4.45;86.84
48364;BME280;34170;54.364;18.582;2023-04-02T07:55:57;100426.44;;;4.48;85.47
48364;BME280;34170;54.364;18.582;2023-04-02T07:58:25;100462.25;;;4.57;85.28
48364;BME280;34170;54.364;18.582;2023-04-02T08:00:53;100443.72;;;4.68;84.22
48364;BME280;34170;54.364;18.582;2023-04-02T08:03:21;100451.06;;;4.52;84.43
48364;BME280;34170;54.364;18.582;2023-04-02T08:05:54;100449.59;;;4.61;84.47
48364;BME280;34170;54.364;18.582;2023-04-02T08:08:23;100427.22;;;4.23;84.50
48364;BME280;34170;54.364;18.582;2023-04-02T08:10:50;100442.94;;;4.41;83.49
48364;BME280;34170;54.364;18.582;2023-04-02T08:13:18;100456.38;;;4.52;82.81
48364;BME280;34170;54.364;18.582;2023-04-02T08:15:45;100456.38;;;4.52;82.65
48364;BME280;34170;54.364;18.582;2023-04-02T08:18:13;100464.72;;;4.60;81.90
48364;BME280;34170;54.364;18.582;2023-04-02T08:20:40;100462.47;;;4.27;83.76
48364;BME280;34170;54.364;18.582;2023-04-02T08:23:12;100463.41;;;4.40;83.72
48364;BME280;34170;54.364;18.582;2023-04-02T08:25:41;100462.22;;;4.97;82.12
48364;BME280;34170;54.364;18.582;2023-04-02T08:28:08;100472.22;;;4.81;82.59
48364;BME280;34170;54.364;18.582;2023-04-02T08:30:36;100483.31;;;4.87;82.29
48364;BME280;34170;54.364;18.582;2023-04-02T08:33:03;100489.50;;;5.01;81.50
48364;BME280;34170;54.364;18.582;2023-04-02T08:35:31;100493.13;;;4.74;82.16
48364;BME280;34170;54.364;18.582;2023-04-02T08:37:59;100488.31;;;4.79;80.77
48364;BME280;34170;54.364;18.582;2023-04-02T08:40:38;100484.94;;;4.50;80.25
48364;BME280;34170;54.364;18.582;2023-04-02T08:47:07;100510.41;;;4.94;77.55
48364;BME280;34170;54.364;18.582;2023-04-02T08:49:18;100507.31;;;5.00;77.39
48364;BME280;34170;54.364;18.582;2023-04-02T08:51:46;100520.13;;;5.08;77.06
48364;BME280;34170;54.364;18.582;2023-04-02T08:54:20;100519.00;;;5.76;74.36
48364;BME280;34170;54.364;18.582;2023-04-02T09:04:40;100531.22;;;8.49;58.95
48364;BME280;34170;54.364;18.582;2023-04-02T09:07:11;100550.28;;;7.78;57.02
48364;BME280;34170;54.364;18.582;2023-04-02T09:09:40;100537.69;;;8.35;57.38
48364;BME280;34170;54.364;18.582;2023-04-02T09:12:20;100554.00;;;9.41;52.73
48364;BME280;34170;54.364;18.582;2023-04-02T09:17:45;100556.00;;;11.97;46.35
48364;BME280;34170;54.364;18.582;2023-04-02T09:20:25;100548.69;;;11.70;46.01
48364;BME280;34170;54.364;18.582;2023-04-02T09:22:53;100570.25;;;10.22;47.70
48364;BME280;34170;54.364;18.582;2023-04-02T09:25:27;100566.00;;;9.88;48.81
48364;BME280;34170;54.364;18.582;2023-04-02T09:28:02;100582.97;;;10.60;47.00
48364;BME280;34170;54.364;18.582;2023-04-02T09:33:46;100592.59;;;8.75;51.21
48364;BME280;34170;54.364;18.582;2023-04-02T09:39:00;100600.00;;;8.83;51.38
48364;BME280;34170;54.364;18.582;2023-04-02T09:41:34;100608.78;;;7.72;52.69
48364;BME280;34170;54.364;18.582;2023-04-02T09:46:55;100610.91;;;9.77;48.99
48364;BME280;34170;54.364;18.582;2023-04-02T09:49:28;100604.06;;;8.66;49.14
48364;BME280;34170;54.364;18.582;2023-04-02T09:52:19;100618.94;;;8.13;50.58
48364;BME280;34170;54.364;18.582;2023-04-02T09:55:15;100614.41;;;7.80;53.45
48364;BME280;34170;54.364;18.582;2023-04-02T09:57:45;100638.94;;;9.09;51.09
48364;BME280;34170;54.364;18.582;2023-04-02T10:00:19;100632.34;;;8.02;51.81
48364;BME280;34170;54.364;18.582;2023-04-02T10:03:12;100652.94;;;8.35;51.91
48364;BME280;34170;54.364;18.582;2023-04-02T10:05:45;100645.47;;;8.84;50.79
48364;BME280;34170;54.364;18.582;2023-04-02T10:10:43;100656.78;;;10.16;45.47
48364;BME280;34170;54.364;18.582;2023-04-02T10:13:32;100662.25;;;9.83;47.98
48364;BME280;34170;54.364;18.582;2023-04-02T10:18:45;100670.28;;;9.09;45.77
48364;BME280;34170;54.364;18.582;2023-04-02T10:21:26;100681.22;;;9.28;45.27
48364;BME280;34170;54.364;18.582;2023-04-02T10:23:56;100683.00;;;8.84;45.55
48364;BME280;34170;54.364;18.582;2023-04-02T10:26:58;100696.22;;;9.20;45.46
48364;BME280;34170;54.364;18.582;2023-04-02T10:29:46;100689.69;;;8.11;47.32
48364;BME280;34170;54.364;18.582;2023-04-02T10:34:51;100678.06;;;7.76;49.73
48364;BME280;34170;54.364;18.582;2023-04-02T10:43:33;100704.69;;;8.25;47.00
48364;BME280;34170;54.364;18.582;2023-04-02T10:49:40;100712.25;;;8.99;45.63
48364;BME280;34170;54.364;18.582;2023-04-02T10:54:52;100738.69;;;7.29;49.23
48364;BME280;34170;54.364;18.582;2023-04-02T10:57:38;100741.50;;;7.15;48.59
48364;BME280;34170;54.364;18.582;2023-04-02T11:08:16;100747.25;;;8.52;46.98
48364;BME280;34170;54.364;18.582;2023-04-02T11:10:48;100780.16;;;7.11;50.36
48364;BME280;34170;54.364;18.582;2023-04-02T11:13:24;100757.66;;;7.13;49.55
48364;BME280;34170;54.364;18.582;2023-04-02T11:15:55;100751.09;;;7.54;48.60
48364;BME280;34170;54.364;18.582;2023-04-02T11:18:24;100778.50;;;6.71;49.91
48364;BME280;34170;54.364;18.582;2023-04-02T11:21:02;100767.13;;;5.63;51.38
48364;BME280;34170;54.364;18.582;2023-04-02T11:23:35;100768.72;;;5.53;52.79
48364;BME280;34170;54.364;18.582;2023-04-02T11:29:13;100773.44;;;5.35;54.77
48364;BME280;34170;54.364;18.582;2023-04-02T11:31:43;100776.78;;;5.79;53.91
48364;BME280;34170;54.364;18.582;2023-04-02T11:37:10;100767.47;;;5.71;53.61
48364;BME280;34170;54.364;18.582;2023-04-02T11:39:56;100776.06;;;5.49;55.67
48364;BME280;34170;54.364;18.582;2023-04-02T11:42:29;100777.63;;;5.79;55.18
48364;BME280;34170;54.364;18.582;2023-04-02T11:50:39;100789.50;;;5.06;58.41
48364;BME280;34170;54.364;18.582;2023-04-02T11:55:38;100812.19;;;4.85;56.87
48364;BME280;34170;54.364;18.582;2023-04-02T12:11:46;100820.03;;;5.29;56.61
48364;BME280;34170;54.364;18.582;2023-04-02T12:14:42;100824.97;;;5.35;55.72
48364;BME280;34170;54.364;18.582;2023-04-02T12:17:28;100819.81;;;5.32;55.43
48364;BME280;34170;54.364;18.582;2023-04-02T12:22:33;100811.19;;;5.14;56.53
48364;BME280;34170;54.364;18.582;2023-04-02T12:27:33;100847.22;;;5.34;56.55
48364;BME280;34170;54.364;18.582;2023-04-02T12:30:15;100856.38;;;5.45;55.80
48364;BME280;34170;54.364;18.582;2023-04-02T12:32:43;100838.03;;;5.11;57.06
48364;BME280;34170;54.364;18.582;2023-04-02T12:37:53;100862.03;;;4.97;57.98
48364;BME280;34170;54.364;18.582;2023-04-02T12:40:20;100881.09;;;4.91;58.47
48364;BME280;34170;54.364;18.582;2023-04-02T12:42:48;100872.50;;;5.00;58.77
48364;BME280;34170;54.364;18.582;2023-04-02T12:45:23;100864.03;;;5.08;57.81
48364;BME280;34170;54.364;18.582;2023-04-02T12:47:54;100878.22;;;4.94;57.68
48364;BME280;34170;54.364;18.582;2023-04-02T12:50:22;100869.66;;;5.18;57.38
48364;BME280;34170;54.364;18.582;2023-04-02T12:52:51;100876.50;;;5.22;57.83
48364;BME280;34170;54.364;18.582;2023-04-02T12:55:23;100874.41;;;5.12;57.31
48364;BME280;34170;54.364;18.582;2023-04-02T12:57:58;100877.47;;;5.21;56.61
48364;BME280;34170;54.364;18.582;2023-04-02T13:00:30;100896.28;;;5.46;56.43
48364;BME280;34170;54.364;18.582;2023-04-02T13:05:43;100892.13;;;4.99;57.10
48364;BME280;34170;54.364;18.582;2023-04-02T13:08:27;100912.13;;;4.92;58.06
48364;BME280;34170;54.364;18.582;2023-04-02T13:11:00;100893.06;;;5.27;58.16
48364;BME280;34170;54.364;18.582;2023-04-02T13:13:32;100914.00;;;4.90;59.11
48364;BME280;34170;54.364;18.582;2023-04-02T13:18:43;100920.31;;;5.03;58.83
48364;BME280;34170;54.364;18.582;2023-04-02T13:23:46;100922.97;;;5.03;58.37
48364;BME280;34170;54.364;18.582;2023-04-02T13:26:25;100913.47;;;4.99;59.46
48364;BME280;34170;54.364;18.582;2023-04-02T13:31:36;100893.25;;;4.95;60.29
48364;BME280;34170;54.364;18.582;2023-04-02T13:34:03;100910.22;;;4.94;58.64
48364;BME280;34170;54.364;18.582;2023-04-02T13:36:30;100924.13;;;4.99;59.36
48364;BME280;34170;54.364;18.582;2023-04-02T13:38:58;100924.66;;;5.04;59.67
48364;BME280;34170;54.364;18.582;2023-04-02T13:41:27;100920.50;;;5.00;60.82
48364;BME280;34170;54.364;18.582;2023-04-02T13:44:00;100930.50;;;5.25;60.35
48364;BME280;34170;54.364;18.582;2023-04-02T13:46:31;100902.59;;;5.16;59.92
48364;BME280;34170;54.364;18.582;2023-04-02T13:48:59;100932.22;;;4.97;61.12
48364;BME280;34170;54.364;18.582;2023-04-02T13:51:38;100937.22;;;4.88;60.77
48364;BME280;34170;54.364;18.582;2023-04-02T13:56:56;100943.81;;;5.54;60.00
48364;BME280;34170;54.364;18.582;2023-04-02T13:59:24;100936.13;;;5.49;59.43
48364;BME280;34170;54.364;18.582;2023-04-02T14:01:55;100939.06;;;5.30;60.24
48364;BME280;34170;54.364;18.582;2023-04-02T14:04:26;100952.66;;;5.11;61.17
48364;BME280;34170;54.364;18.582;2023-04-02T14:10:13;100968.47;;;5.00;60.54
48364;BME280;34170;54.364;18.582;2023-04-02T14:13:00;100980.78;;;5.03;61.26
48364;BME280;34170;54.364;18.582;2023-04-02T14:21:31;100996.78;;;5.03;61.68
48364;BME280;34170;54.364;18.582;2023-04-02T14:26:53;100988.44;;;4.93;61.39
48364;BME280;34170;54.364;18.582;2023-04-02T14:35:21;100985.31;;;5.01;60.81
48364;BME280;34170;54.364;18.582;2023-04-02T14:51:02;101030.97;;;4.80;63.97
48364;BME280;34170;54.364;18.582;2023-04-02T14:56:20;101006.25;;;4.92;63.90
48364;BME280;34170;54.364;18.582;2023-04-02T14:58:53;101016.38;;;4.71;64.39
48364;BME280;34170;54.364;18.582;2023-04-02T15:01:34;101021.41;;;4.62;62.35
48364;BME280;34170;54.364;18.582;2023-04-02T15:04:09;101027.56;;;4.62;64.11
48364;BME280;34170;54.364;18.582;2023-04-02T15:06:46;101029.09;;;4.66;63.06
48364;BME280;34170;54.364;18.582;2023-04-02T15:09:28;101035.25;;;4.83;63.94
48364;BME280;34170;54.364;18.582;2023-04-02T15:12:02;101029.69;;;5.02;64.32
48364;BME280;34170;54.364;18.582;2023-04-02T15:14:41;101034.28;;;4.53;64.74
48364;BME280;34170;54.364;18.582;2023-04-02T15:17:11;101036.28;;;4.50;65.81
48364;BME280;34170;54.364;18.582;2023-04-02T15:19:38;101045.47;;;4.60;66.43
48364;BME280;34170;54.364;18.582;2023-04-02T15:22:54;101040.13;;;4.60;67.37
48364;BME280;34170;54.364;18.582;2023-04-02T15:25:33;101054.47;;;4.57;66.07
48364;BME280;34170;54.364;18.582;2023-04-02T15:28:18;101038.56;;;4.56;66.41
48364;BME280;34170;54.364;18.582;2023-04-02T15:30:52;101042.34;;;4.68;66.73
48364;BME280;34170;54.364;18.582;2023-04-02T15:34:04;101056.44;;;4.54;67.56
48364;BME280;34170;54.364;18.582;2023-04-02T15:39:45;101066.50;;;4.49;69.78
48364;BME280;34170;54.364;18.582;2023-04-02T15:42:37;101055.28;;;4.44;68.40
48364;BME280;34170;54.364;18.582;2023-04-02T15:50:53;101065.84;;;4.29;67.31
48364;BME280;34170;54.364;18.582;2023-04-02T16:01:34;101083.44;;;4.48;69.88
48364;BME280;34170;54.364;18.582;2023-04-02T16:04:19;101082.41;;;4.50;70.44
48364;BME280;34170;54.364;18.582;2023-04-02T16:09:56;101091.34;;;4.17;71.11
48364;BME280;34170;54.364;18.582;2023-04-02T16:12:28;101077.97;;;4.35;71.52
48364;BME280;34170;54.364;18.582;2023-04-02T16:15:03;101099.34;;;4.33;71.78
48364;BME280;34170;54.364;18.582;2023-04-02T16:17:44;101098.56;;;4.15;72.31
48364;BME280;34170;54.364;18.582;2023-04-02T16:20:25;101109.53;;;4.25;72.57
48364;BME280;34170;54.364;18.582;2023-04-02T16:23:10;101113.31;;;4.05;73.75
48364;BME280;34170;54.364;18.582;2023-04-02T16:28:42;101104.19;;;4.09;73.07
48364;BME280;34170;54.364;18.582;2023-04-02T16:50:50;101143.69;;;4.01;72.47
48364;BME280;34170;54.364;18.582;2023-04-02T16:59:34;101144.06;;;3.77;73.47
48364;BME280;34170;54.364;18.582;2023-04-02T17:10:27;101146.13;;;3.55;71.82
48364;BME280;34170;54.364;18.582;2023-04-02T17:15:54;101171.44;;;3.44;72.27
48364;BME280;34170;54.364;18.582;2023-04-02T17:18:27;101179.59;;;3.59;72.39
48364;BME280;34170;54.364;18.582;2023-04-02T17:20:59;101171.16;;;3.51;73.93
48364;BME280;34170;54.364;18.582;2023-04-02T17:23:30;101186.56;;;3.44;75.66
48364;BME280;34170;54.364;18.582;2023-04-02T17:26:04;101180.91;;;3.50;74.81
48364;BME280;34170;54.364;18.582;2023-04-02T17:28:34;101181.53;;;3.38;74.26
48364;BME280;34170;54.364;18.582;2023-04-02T17:34:15;101190.47;;;3.37;74.03
48364;BME280;34170;54.364;18.582;2023-04-02T17:39:24;101186.13;;;3.34;72.77
48364;BME280;34170;54.364;18.582;2023-04-02T17:42:20;101195.78;;;3.37;70.93
48364;BME280;34170;54.364;18.582;2023-04-02T17:47:57;101222.06;;;3.43;70.46
48364;BME280;34170;54.364;18.582;2023-04-02T18:10:02;101218.41;;;3.09;71.59
48364;BME280;34170;54.364;18.582;2023-04-02T18:12:54;101237.06;;;3.08;71.26
48364;BME280;34170;54.364;18.582;2023-04-02T18:26:35;101249.22;;;3.13;71.01
48364;BME280;34170;54.364;18.582;2023-04-02T18:34:51;101267.25;;;3.07;68.82
48364;BME280;34170;54.364;18.582;2023-04-02T18:42:51;101272.56;;;2.88;70.69
48364;BME280;34170;54.364;18.582;2023-04-02T18:50:47;101278.88;;;3.04;72.33
48364;BME280;34170;54.364;18.582;2023-04-02T18:53:16;101276.38;;;3.01;72.95
48364;BME280;34170;54.364;18.582;2023-04-02T18:55:49;101279.47;;;2.92;72.17
48364;BME280;34170;54.364;18.582;2023-04-02T18:58:28;101289.81;;;2.98;71.24
48364;BME280;34170;54.364;18.582;2023-04-02T19:00:59;101289.16;;;2.93;70.72